VAW1CE BIKF-EIDW
Flight info
| Callsign | VAW1CE |
|---|---|
| Flight time | 2h 6m |
| Altitude | 37000 |
| Route | RIMUM1A RIMUM DCT RUMUX DCT RAPAX DCT ETILO/N0450F370 DCT EVNAL DCT TUXOS DCT BELZU DCT NUMPI P620 NIMAT NIMAT4L |
| Aircraft | A320/M-SBDE3FGHIRWY/LB2 |
Departure
| Time | 2026-05-07 10:49 |
|---|---|
| Airport | Keflavik International Airport (BIKF) |
Arrival
| Time | 2026-05-07 12:55 |
|---|---|
| Airport | Dublin Airport (EIDW) |
| Time | Latitude | Longitude | Altitude | Speed | Heading |
|---|---|---|---|---|---|
| 2026-05-07 09:53 | 63.99482 | -22.62304 | 166 ft | 0 kts | 269° |
| 2026-05-07 10:30 | 63.99484 | -22.62226 | 165 ft | 4 kts | 260° |
| 2026-05-07 10:30 | 63.99491 | -22.62166 | 166 ft | 4 kts | 248° |
| 2026-05-07 10:30 | 63.99504 | -22.62116 | 166 ft | 4 kts | 216° |
| 2026-05-07 10:30 | 63.99517 | -22.62101 | 166 ft | 0 kts | 178° |
| 2026-05-07 10:37 | 63.99510 | -22.62101 | 166 ft | 3 kts | 178° |
| 2026-05-07 10:37 | 63.99475 | -22.62093 | 169 ft | 7 kts | 170° |
| 2026-05-07 10:38 | 63.99423 | -22.62038 | 166 ft | 10 kts | 149° |
| 2026-05-07 10:38 | 63.99356 | -22.61994 | 166 ft | 11 kts | 180° |
| 2026-05-07 10:38 | 63.99268 | -22.61993 | 165 ft | 13 kts | 179° |
| 2026-05-07 10:38 | 63.99188 | -22.61979 | 165 ft | 11 kts | 157° |
| 2026-05-07 10:39 | 63.99171 | -22.61802 | 163 ft | 13 kts | 90° |
| 2026-05-07 10:39 | 63.99171 | -22.61581 | 166 ft | 15 kts | 90° |
| 2026-05-07 10:39 | 63.99172 | -22.61333 | 167 ft | 17 kts | 90° |
| 2026-05-07 10:39 | 63.99173 | -22.61108 | 168 ft | 11 kts | 89° |
| 2026-05-07 10:40 | 63.99140 | -22.60955 | 168 ft | 13 kts | 155° |
| 2026-05-07 10:40 | 63.99039 | -22.60946 | 166 ft | 17 kts | 181° |
| 2026-05-07 10:40 | 63.98916 | -22.60945 | 163 ft | 18 kts | 181° |
| 2026-05-07 10:40 | 63.98779 | -22.60946 | 160 ft | 20 kts | 179° |
| 2026-05-07 10:41 | 63.98658 | -22.60943 | 157 ft | 17 kts | 179° |
| 2026-05-07 10:41 | 63.98526 | -22.60942 | 154 ft | 21 kts | 180° |
| 2026-05-07 10:41 | 63.98373 | -22.60936 | 151 ft | 23 kts | 179° |
| 2026-05-07 10:41 | 63.98219 | -22.60942 | 150 ft | 18 kts | 181° |
| 2026-05-07 10:42 | 63.98092 | -22.60948 | 150 ft | 19 kts | 180° |
| 2026-05-07 10:42 | 63.97954 | -22.60949 | 149 ft | 20 kts | 180° |
| 2026-05-07 10:42 | 63.97812 | -22.60947 | 148 ft | 22 kts | 179° |
| 2026-05-07 10:42 | 63.97673 | -22.60946 | 147 ft | 20 kts | 180° |
| 2026-05-07 10:43 | 63.97526 | -22.60944 | 146 ft | 20 kts | 180° |
| 2026-05-07 10:43 | 63.97378 | -22.60948 | 145 ft | 22 kts | 181° |
| 2026-05-07 10:43 | 63.97224 | -22.60949 | 144 ft | 22 kts | 180° |
| 2026-05-07 10:43 | 63.97077 | -22.60947 | 143 ft | 21 kts | 180° |
| 2026-05-07 10:44 | 63.96929 | -22.60946 | 142 ft | 20 kts | 179° |
| 2026-05-07 10:44 | 63.96780 | -22.60946 | 141 ft | 22 kts | 180° |
| 2026-05-07 10:44 | 63.96648 | -22.60945 | 141 ft | 20 kts | 180° |
| 2026-05-07 10:44 | 63.96532 | -22.60944 | 140 ft | 16 kts | 179° |
| 2026-05-07 10:45 | 63.96463 | -22.60856 | 140 ft | 13 kts | 104° |
| 2026-05-07 10:45 | 63.96461 | -22.60770 | 140 ft | 0 kts | 90° |
| 2026-05-07 10:46 | 63.96461 | -22.60744 | 140 ft | 3 kts | 90° |
| 2026-05-07 10:47 | 63.96462 | -22.60657 | 139 ft | 8 kts | 90° |
| 2026-05-07 10:47 | 63.96490 | -22.60545 | 139 ft | 6 kts | 11° |
| 2026-05-07 10:47 | 63.96512 | -22.60545 | 140 ft | 0 kts | 359° |
| 2026-05-07 10:48 | 63.96514 | -22.60546 | 140 ft | 4 kts | 359° |
| 2026-05-07 10:48 | 63.96723 | -22.60544 | 143 ft | 63 kts | 0° |
| 2026-05-07 10:48 | 63.97354 | -22.60544 | 146 ft | 116 kts | 360° |
| 2026-05-07 10:48 | 63.98281 | -22.60579 | 331 ft | 142 kts | 1° |
| 2026-05-07 10:49 | 63.99293 | -22.60604 | 933 ft | 148 kts | 4° |
| 2026-05-07 10:49 | 64.00337 | -22.60590 | 1520 ft | 155 kts | 4° |
| 2026-05-07 10:49 | 64.01453 | -22.60538 | 1941 ft | 169 kts | 4° |
| 2026-05-07 10:49 | 64.02674 | -22.60515 | 2415 ft | 182 kts | 3° |
| 2026-05-07 10:50 | 64.03980 | -22.60500 | 2964 ft | 193 kts | 3° |
| 2026-05-07 10:50 | 64.05357 | -22.60370 | 3616 ft | 200 kts | 16° |
| 2026-05-07 10:50 | 64.06445 | -22.58579 | 4409 ft | 202 kts | 56° |
| 2026-05-07 10:50 | 64.06822 | -22.55322 | 4951 ft | 224 kts | 84° |
| 2026-05-07 10:51 | 64.06790 | -22.51686 | 5703 ft | 233 kts | 90° |
| 2026-05-07 10:51 | 64.06646 | -22.47964 | 6521 ft | 238 kts | 95° |
| 2026-05-07 10:51 | 64.06024 | -22.44376 | 7277 ft | 251 kts | 120° |
| 2026-05-07 10:51 | 64.04771 | -22.41472 | 7915 ft | 270 kts | 143° |
| 2026-05-07 10:52 | 64.02957 | -22.39848 | 8408 ft | 290 kts | 166° |
| 2026-05-07 10:52 | 64.00969 | -22.38883 | 9207 ft | 293 kts | 167° |
| 2026-05-07 10:52 | 63.98957 | -22.37903 | 10021 ft | 298 kts | 167° |
| 2026-05-07 10:52 | 63.96916 | -22.36905 | 10638 ft | 308 kts | 167° |
| 2026-05-07 10:53 | 63.94745 | -22.35839 | 10837 ft | 330 kts | 167° |
| 2026-05-07 10:53 | 63.92456 | -22.34707 | 11084 ft | 349 kts | 167° |
| 2026-05-07 10:53 | 63.90047 | -22.33514 | 11643 ft | 357 kts | 167° |
| 2026-05-07 10:53 | 63.87605 | -22.32307 | 12340 ft | 360 kts | 167° |
| 2026-05-07 10:54 | 63.85153 | -22.31104 | 13081 ft | 363 kts | 167° |
| 2026-05-07 10:54 | 63.82670 | -22.29891 | 13769 ft | 366 kts | 167° |
| 2026-05-07 10:54 | 63.80163 | -22.28666 | 14387 ft | 370 kts | 167° |
| 2026-05-07 10:54 | 63.77629 | -22.27432 | 14949 ft | 374 kts | 168° |
| 2026-05-07 10:55 | 63.75069 | -22.26194 | 15516 ft | 378 kts | 168° |
| 2026-05-07 10:55 | 63.72485 | -22.24943 | 16090 ft | 381 kts | 168° |
| 2026-05-07 10:55 | 63.69882 | -22.23678 | 16690 ft | 384 kts | 168° |
| 2026-05-07 10:55 | 63.67254 | -22.22399 | 17260 ft | 388 kts | 168° |
| 2026-05-07 10:56 | 63.64601 | -22.21109 | 17847 ft | 392 kts | 168° |
| 2026-05-07 10:56 | 63.61927 | -22.19806 | 18446 ft | 395 kts | 168° |
| 2026-05-07 10:56 | 63.59228 | -22.18495 | 18999 ft | 398 kts | 168° |
| 2026-05-07 10:56 | 63.56505 | -22.17178 | 19553 ft | 401 kts | 168° |
| 2026-05-07 10:57 | 63.53767 | -22.15839 | 20113 ft | 405 kts | 166° |
| 2026-05-07 10:57 | 63.51088 | -22.13833 | 20664 ft | 407 kts | 156° |
| 2026-05-07 10:57 | 63.48513 | -22.11146 | 21215 ft | 410 kts | 154° |
| 2026-05-07 10:57 | 63.45925 | -22.08423 | 21744 ft | 413 kts | 154° |
| 2026-05-07 10:58 | 63.43347 | -22.05722 | 22252 ft | 416 kts | 154° |
| 2026-05-07 10:58 | 63.40716 | -22.02981 | 22756 ft | 419 kts | 154° |
| 2026-05-07 10:58 | 63.38067 | -22.00234 | 23226 ft | 421 kts | 154° |
| 2026-05-07 10:58 | 63.35395 | -21.97467 | 23700 ft | 424 kts | 154° |
| 2026-05-07 10:59 | 63.32707 | -21.94686 | 24092 ft | 427 kts | 154° |
| 2026-05-07 10:59 | 63.30005 | -21.91894 | 24478 ft | 429 kts | 154° |
| 2026-05-07 10:59 | 63.27285 | -21.89090 | 24851 ft | 432 kts | 154° |
| 2026-05-07 10:59 | 63.24543 | -21.86273 | 25163 ft | 436 kts | 154° |
| 2026-05-07 11:00 | 63.21784 | -21.83447 | 25524 ft | 439 kts | 154° |
| 2026-05-07 11:00 | 63.18998 | -21.80598 | 25835 ft | 443 kts | 154° |
| 2026-05-07 11:00 | 63.16199 | -21.77735 | 26230 ft | 444 kts | 154° |
| 2026-05-07 11:00 | 63.13382 | -21.74860 | 26593 ft | 446 kts | 154° |
| 2026-05-07 11:01 | 63.10576 | -21.71932 | 26990 ft | 447 kts | 151° |
| 2026-05-07 11:01 | 63.07936 | -21.68290 | 27316 ft | 449 kts | 142° |
| 2026-05-07 11:01 | 63.05592 | -21.63857 | 27622 ft | 450 kts | 133° |
| 2026-05-07 11:01 | 63.03494 | -21.58738 | 27980 ft | 451 kts | 129° |
| 2026-05-07 11:02 | 63.01417 | -21.53536 | 28309 ft | 454 kts | 129° |
| 2026-05-07 11:02 | 62.99318 | -21.48316 | 28641 ft | 456 kts | 130° |
| 2026-05-07 11:02 | 62.97205 | -21.43093 | 29032 ft | 457 kts | 130° |
| 2026-05-07 11:02 | 62.95088 | -21.37867 | 29398 ft | 459 kts | 129° |
| 2026-05-07 11:03 | 62.92964 | -21.32641 | 29845 ft | 458 kts | 130° |
| 2026-05-07 11:03 | 62.90844 | -21.27448 | 30377 ft | 455 kts | 130° |
| 2026-05-07 11:03 | 62.88735 | -21.22293 | 30775 ft | 454 kts | 130° |
| 2026-05-07 11:03 | 62.86624 | -21.17131 | 31137 ft | 454 kts | 130° |
| 2026-05-07 11:04 | 62.84519 | -21.11978 | 31502 ft | 454 kts | 130° |
| 2026-05-07 11:04 | 62.82431 | -21.06873 | 31733 ft | 458 kts | 129° |
| 2026-05-07 11:04 | 62.80295 | -21.01665 | 32002 ft | 461 kts | 130° |
| 2026-05-07 11:04 | 62.78146 | -20.96455 | 32270 ft | 463 kts | 130° |
| 2026-05-07 11:05 | 62.75986 | -20.91244 | 32735 ft | 461 kts | 130° |
| 2026-05-07 11:05 | 62.73836 | -20.86067 | 33151 ft | 459 kts | 131° |
| 2026-05-07 11:05 | 62.71690 | -20.80906 | 33570 ft | 459 kts | 131° |
| 2026-05-07 11:05 | 62.69543 | -20.75745 | 33858 ft | 461 kts | 131° |
| 2026-05-07 11:06 | 62.67383 | -20.70562 | 34214 ft | 462 kts | 131° |
| 2026-05-07 11:06 | 62.65213 | -20.65374 | 34396 ft | 465 kts | 131° |
| 2026-05-07 11:06 | 62.63031 | -20.60169 | 34630 ft | 467 kts | 131° |
| 2026-05-07 11:06 | 62.60838 | -20.54950 | 34897 ft | 467 kts | 131° |
| 2026-05-07 11:07 | 62.58644 | -20.49736 | 35173 ft | 468 kts | 131° |
| 2026-05-07 11:07 | 62.56447 | -20.44535 | 35437 ft | 468 kts | 131° |
| 2026-05-07 11:07 | 62.54253 | -20.39361 | 35798 ft | 465 kts | 132° |
| 2026-05-07 11:07 | 62.52074 | -20.34227 | 36181 ft | 462 kts | 131° |
| 2026-05-07 11:08 | 62.49899 | -20.29108 | 36468 ft | 461 kts | 132° |
| 2026-05-07 11:08 | 62.47728 | -20.24015 | 36748 ft | 460 kts | 132° |
| 2026-05-07 11:08 | 62.45584 | -20.19000 | 36990 ft | 460 kts | 132° |
| 2026-05-07 11:08 | 62.43406 | -20.13917 | 37121 ft | 461 kts | 132° |
| 2026-05-07 11:09 | 62.39005 | -20.03679 | 37139 ft | 468 kts | 132° |
| 2026-05-07 11:09 | 62.34304 | -19.93987 | 37139 ft | 469 kts | 138° |
| 2026-05-07 11:10 | 62.29419 | -19.84650 | 37136 ft | 471 kts | 138° |
| 2026-05-07 11:10 | 62.24490 | -19.75272 | 37136 ft | 475 kts | 138° |
| 2026-05-07 11:11 | 62.19542 | -19.65898 | 37150 ft | 474 kts | 138° |
| 2026-05-07 11:11 | 62.14601 | -19.56567 | 37156 ft | 473 kts | 138° |
| 2026-05-07 11:12 | 62.09659 | -19.47264 | 37135 ft | 473 kts | 138° |
| 2026-05-07 11:12 | 62.04713 | -19.38006 | 37133 ft | 473 kts | 139° |
| 2026-05-07 11:13 | 61.99748 | -19.28761 | 37114 ft | 475 kts | 139° |
| 2026-05-07 11:13 | 61.94763 | -19.19534 | 37104 ft | 476 kts | 139° |
| 2026-05-07 11:14 | 61.89787 | -19.10342 | 37102 ft | 477 kts | 139° |
| 2026-05-07 11:14 | 61.84754 | -19.01082 | 37108 ft | 478 kts | 139° |
| 2026-05-07 11:15 | 61.79734 | -18.91867 | 37123 ft | 477 kts | 139° |
| 2026-05-07 11:15 | 61.74695 | -18.82701 | 37129 ft | 476 kts | 139° |
| 2026-05-07 11:16 | 61.69686 | -18.73630 | 37121 ft | 474 kts | 139° |
| 2026-05-07 11:16 | 61.64718 | -18.64667 | 37108 ft | 474 kts | 140° |
| 2026-05-07 11:17 | 61.59710 | -18.55666 | 37100 ft | 473 kts | 140° |
| 2026-05-07 11:17 | 61.54691 | -18.46699 | 37103 ft | 473 kts | 140° |
| 2026-05-07 11:18 | 61.49777 | -18.37595 | 37103 ft | 471 kts | 133° |
| 2026-05-07 11:18 | 61.45569 | -18.27087 | 37078 ft | 471 kts | 129° |
| 2026-05-07 11:19 | 61.42095 | -18.18327 | 37067 ft | 471 kts | 130° |
| 2026-05-07 11:19 | 61.37892 | -18.07808 | 37067 ft | 472 kts | 130° |
| 2026-05-07 11:20 | 61.33671 | -17.97260 | 37055 ft | 474 kts | 130° |
| 2026-05-07 11:20 | 61.29435 | -17.86722 | 37053 ft | 474 kts | 130° |
| 2026-05-07 11:21 | 61.25190 | -17.76233 | 37056 ft | 475 kts | 130° |
| 2026-05-07 11:21 | 61.20938 | -17.65751 | 37054 ft | 474 kts | 130° |
| 2026-05-07 11:22 | 61.16688 | -17.55342 | 37055 ft | 473 kts | 130° |
| 2026-05-07 11:22 | 61.12432 | -17.44967 | 37039 ft | 473 kts | 130° |
| 2026-05-07 11:23 | 61.08202 | -17.34679 | 37023 ft | 472 kts | 131° |
| 2026-05-07 11:23 | 61.03936 | -17.24355 | 37004 ft | 472 kts | 131° |
| 2026-05-07 11:24 | 60.99658 | -17.14053 | 36994 ft | 473 kts | 131° |
| 2026-05-07 11:24 | 60.95364 | -17.03775 | 36998 ft | 472 kts | 131° |
| 2026-05-07 11:25 | 60.91081 | -16.93531 | 36980 ft | 472 kts | 131° |
| 2026-05-07 11:25 | 60.86784 | -16.83324 | 36978 ft | 471 kts | 131° |
| 2026-05-07 11:26 | 60.82525 | -16.73260 | 36976 ft | 470 kts | 131° |
| 2026-05-07 11:26 | 60.78235 | -16.63172 | 36964 ft | 470 kts | 131° |
| 2026-05-07 11:27 | 60.73940 | -16.53110 | 36952 ft | 469 kts | 132° |
| 2026-05-07 11:27 | 60.69645 | -16.43078 | 36942 ft | 469 kts | 132° |
| 2026-05-07 11:28 | 60.65345 | -16.33086 | 36932 ft | 469 kts | 133° |
| 2026-05-07 11:28 | 60.61023 | -16.23109 | 36934 ft | 469 kts | 132° |
| 2026-05-07 11:29 | 60.56706 | -16.13151 | 36904 ft | 469 kts | 133° |
| 2026-05-07 11:29 | 60.52407 | -16.03303 | 36907 ft | 468 kts | 133° |
| 2026-05-07 11:30 | 60.48080 | -15.93428 | 36898 ft | 468 kts | 132° |
| 2026-05-07 11:30 | 60.43760 | -15.83590 | 36891 ft | 467 kts | 133° |
| 2026-05-07 11:31 | 60.39426 | -15.73786 | 36844 ft | 468 kts | 133° |
| 2026-05-07 11:31 | 60.35077 | -15.63993 | 36854 ft | 468 kts | 133° |
| 2026-05-07 11:32 | 60.28529 | -15.49321 | 36849 ft | 469 kts | 134° |
| 2026-05-07 11:33 | 60.24180 | -15.39634 | 36834 ft | 469 kts | 134° |
| 2026-05-07 11:33 | 60.19810 | -15.29925 | 36825 ft | 468 kts | 134° |
| 2026-05-07 11:34 | 60.15433 | -15.20243 | 36811 ft | 468 kts | 134° |
| 2026-05-07 11:34 | 60.11054 | -15.10603 | 36808 ft | 467 kts | 134° |
| 2026-05-07 11:35 | 60.06664 | -15.01008 | 36785 ft | 467 kts | 134° |
| 2026-05-07 11:35 | 60.02272 | -14.91431 | 36763 ft | 467 kts | 135° |
| 2026-05-07 11:36 | 59.97875 | -14.81868 | 36762 ft | 467 kts | 134° |
| 2026-05-07 11:36 | 59.93473 | -14.72337 | 36760 ft | 467 kts | 134° |
| 2026-05-07 11:37 | 59.89063 | -14.62834 | 36694 ft | 468 kts | 136° |
| 2026-05-07 11:37 | 59.84633 | -14.53328 | 36708 ft | 468 kts | 135° |
| 2026-05-07 11:38 | 59.80237 | -14.43923 | 36705 ft | 467 kts | 136° |
| 2026-05-07 11:38 | 59.75809 | -14.34500 | 36704 ft | 466 kts | 136° |
| 2026-05-07 11:39 | 59.71367 | -14.25100 | 36661 ft | 466 kts | 135° |
| 2026-05-07 11:39 | 59.66939 | -14.15760 | 36653 ft | 465 kts | 135° |
| 2026-05-07 11:40 | 59.62513 | -14.06463 | 36638 ft | 464 kts | 136° |
| 2026-05-07 11:40 | 59.58086 | -13.97191 | 36637 ft | 464 kts | 136° |
| 2026-05-07 11:41 | 59.53652 | -13.87948 | 36612 ft | 464 kts | 136° |
| 2026-05-07 11:41 | 59.49211 | -13.78738 | 36612 ft | 464 kts | 136° |
| 2026-05-07 11:42 | 59.44796 | -13.69608 | 36592 ft | 464 kts | 136° |
| 2026-05-07 11:42 | 59.40342 | -13.60427 | 36610 ft | 464 kts | 136° |
| 2026-05-07 11:43 | 59.35888 | -13.51297 | 36596 ft | 463 kts | 136° |
| 2026-05-07 11:43 | 59.31418 | -13.42181 | 36609 ft | 463 kts | 136° |
| 2026-05-07 11:44 | 59.26953 | -13.33091 | 36598 ft | 463 kts | 136° |
| 2026-05-07 11:44 | 59.22479 | -13.24034 | 36610 ft | 463 kts | 137° |
| 2026-05-07 11:45 | 59.17997 | -13.14999 | 36590 ft | 463 kts | 137° |
| 2026-05-07 11:45 | 59.13542 | -13.06061 | 36595 ft | 463 kts | 137° |
| 2026-05-07 11:46 | 59.09052 | -12.97065 | 36603 ft | 463 kts | 137° |
| 2026-05-07 11:46 | 59.04557 | -12.88101 | 36609 ft | 463 kts | 137° |
| 2026-05-07 11:47 | 59.00057 | -12.79153 | 36601 ft | 462 kts | 137° |
| 2026-05-07 11:47 | 58.95562 | -12.70243 | 36592 ft | 462 kts | 138° |
| 2026-05-07 11:48 | 58.91055 | -12.61377 | 36606 ft | 461 kts | 138° |
| 2026-05-07 11:48 | 58.86579 | -12.52592 | 36613 ft | 461 kts | 138° |
| 2026-05-07 11:49 | 58.82066 | -12.43775 | 36614 ft | 461 kts | 138° |
| 2026-05-07 11:49 | 58.77553 | -12.34997 | 36619 ft | 461 kts | 139° |
| 2026-05-07 11:50 | 58.73032 | -12.26245 | 36591 ft | 461 kts | 139° |
| 2026-05-07 11:50 | 58.68517 | -12.17497 | 36603 ft | 461 kts | 139° |
| 2026-05-07 11:51 | 58.63987 | -12.08770 | 36615 ft | 461 kts | 139° |
| 2026-05-07 11:51 | 58.59473 | -12.00132 | 36619 ft | 461 kts | 139° |
| 2026-05-07 11:52 | 58.54931 | -11.91468 | 36632 ft | 461 kts | 139° |
| 2026-05-07 11:52 | 58.50386 | -11.82820 | 36632 ft | 460 kts | 139° |
| 2026-05-07 11:53 | 58.45841 | -11.74206 | 36616 ft | 460 kts | 140° |
| 2026-05-07 11:53 | 58.41287 | -11.65633 | 36630 ft | 460 kts | 140° |
| 2026-05-07 11:54 | 58.36732 | -11.57072 | 36635 ft | 460 kts | 140° |
| 2026-05-07 11:54 | 58.32169 | -11.48523 | 36636 ft | 459 kts | 140° |
| 2026-05-07 11:55 | 58.27616 | -11.40013 | 36650 ft | 459 kts | 140° |
| 2026-05-07 11:55 | 58.23051 | -11.31528 | 36649 ft | 459 kts | 140° |
| 2026-05-07 11:56 | 58.18476 | -11.23075 | 36658 ft | 459 kts | 140° |
| 2026-05-07 11:56 | 58.13902 | -11.14638 | 36657 ft | 459 kts | 140° |
| 2026-05-07 11:57 | 58.09332 | -11.06226 | 36659 ft | 458 kts | 140° |
| 2026-05-07 11:57 | 58.04754 | -10.97848 | 36664 ft | 458 kts | 140° |
| 2026-05-07 11:58 | 58.00196 | -10.89543 | 36643 ft | 458 kts | 141° |
| 2026-05-07 11:58 | 57.95614 | -10.81223 | 36671 ft | 457 kts | 141° |
| 2026-05-07 11:59 | 57.91042 | -10.72926 | 36693 ft | 456 kts | 141° |
| 2026-05-07 11:59 | 57.86470 | -10.64687 | 36694 ft | 455 kts | 141° |
| 2026-05-07 12:00 | 57.81894 | -10.56471 | 36692 ft | 455 kts | 141° |
| 2026-05-07 12:00 | 57.77323 | -10.48292 | 36701 ft | 454 kts | 141° |
| 2026-05-07 12:01 | 57.72782 | -10.40190 | 36701 ft | 453 kts | 142° |
| 2026-05-07 12:01 | 57.68210 | -10.32074 | 36718 ft | 452 kts | 142° |
| 2026-05-07 12:02 | 57.63649 | -10.23989 | 36715 ft | 451 kts | 142° |
| 2026-05-07 12:02 | 57.59094 | -10.15942 | 36728 ft | 450 kts | 142° |
| 2026-05-07 12:03 | 57.54543 | -10.07952 | 36732 ft | 449 kts | 142° |
| 2026-05-07 12:03 | 57.50414 | -9.99133 | 36727 ft | 460 kts | 127° |
| 2026-05-07 12:04 | 57.47862 | -9.88183 | 36734 ft | 470 kts | 113° |
| 2026-05-07 12:04 | 57.45786 | -9.76668 | 36743 ft | 470 kts | 114° |
| 2026-05-07 12:05 | 57.43674 | -9.65191 | 36753 ft | 470 kts | 114° |
| 2026-05-07 12:05 | 57.41214 | -9.54073 | 36745 ft | 460 kts | 127° |
| 2026-05-07 12:06 | 57.37305 | -9.45013 | 36750 ft | 444 kts | 144° |
| 2026-05-07 12:06 | 57.32502 | -9.37977 | 36761 ft | 440 kts | 148° |
| 2026-05-07 12:07 | 57.27665 | -9.31042 | 36743 ft | 440 kts | 148° |
| 2026-05-07 12:07 | 57.22827 | -9.24123 | 36763 ft | 439 kts | 148° |
| 2026-05-07 12:08 | 57.17985 | -9.17237 | 36769 ft | 439 kts | 148° |
| 2026-05-07 12:08 | 57.13141 | -9.10360 | 36781 ft | 439 kts | 148° |
| 2026-05-07 12:09 | 57.08296 | -9.03511 | 36785 ft | 439 kts | 148° |
| 2026-05-07 12:09 | 57.03446 | -8.96677 | 36767 ft | 440 kts | 148° |
| 2026-05-07 12:10 | 56.98588 | -8.89843 | 36773 ft | 440 kts | 148° |
| 2026-05-07 12:10 | 56.93749 | -8.83062 | 36783 ft | 440 kts | 148° |
| 2026-05-07 12:11 | 56.88870 | -8.76259 | 36789 ft | 441 kts | 148° |
| 2026-05-07 12:11 | 56.83988 | -8.69475 | 36807 ft | 441 kts | 148° |
| 2026-05-07 12:12 | 56.79920 | -8.63850 | 36782 ft | 441 kts | 148° |
| 2026-05-07 12:12 | 56.75022 | -8.57085 | 36809 ft | 441 kts | 148° |
| 2026-05-07 12:13 | 56.70123 | -8.50346 | 36820 ft | 441 kts | 148° |
| 2026-05-07 12:13 | 56.65219 | -8.43612 | 36839 ft | 441 kts | 148° |
| 2026-05-07 12:14 | 56.60314 | -8.36900 | 36848 ft | 441 kts | 148° |
| 2026-05-07 12:14 | 56.55407 | -8.30207 | 36831 ft | 441 kts | 148° |
| 2026-05-07 12:15 | 56.50502 | -8.23532 | 36849 ft | 440 kts | 148° |
| 2026-05-07 12:15 | 56.45593 | -8.16881 | 36863 ft | 440 kts | 148° |
| 2026-05-07 12:16 | 56.40726 | -8.10308 | 36865 ft | 440 kts | 148° |
| 2026-05-07 12:16 | 56.35822 | -8.03711 | 36859 ft | 439 kts | 148° |
| 2026-05-07 12:17 | 56.30928 | -7.97142 | 36856 ft | 438 kts | 148° |
| 2026-05-07 12:17 | 56.26043 | -7.90601 | 36885 ft | 437 kts | 148° |
| 2026-05-07 12:18 | 56.21160 | -7.84091 | 36887 ft | 436 kts | 148° |
| 2026-05-07 12:18 | 56.16270 | -7.77606 | 36896 ft | 436 kts | 148° |
| 2026-05-07 12:19 | 56.11389 | -7.71153 | 36897 ft | 436 kts | 148° |
| 2026-05-07 12:19 | 56.06509 | -7.64710 | 36882 ft | 435 kts | 148° |
| 2026-05-07 12:20 | 56.01637 | -7.58294 | 36895 ft | 435 kts | 148° |
| 2026-05-07 12:20 | 55.96728 | -7.52027 | 36898 ft | 431 kts | 154° |
| 2026-05-07 12:21 | 55.91533 | -7.46728 | 36909 ft | 430 kts | 154° |
| 2026-05-07 12:21 | 55.86351 | -7.41425 | 36910 ft | 430 kts | 154° |
| 2026-05-07 12:22 | 55.81168 | -7.36140 | 36911 ft | 429 kts | 154° |
| 2026-05-07 12:22 | 55.76011 | -7.30902 | 36897 ft | 429 kts | 154° |
| 2026-05-07 12:23 | 55.70820 | -7.25651 | 36902 ft | 429 kts | 154° |
| 2026-05-07 12:23 | 55.65628 | -7.20417 | 36907 ft | 429 kts | 154° |
| 2026-05-07 12:24 | 55.60440 | -7.15190 | 36915 ft | 429 kts | 154° |
| 2026-05-07 12:24 | 55.55245 | -7.09969 | 36906 ft | 429 kts | 154° |
| 2026-05-07 12:25 | 55.50045 | -7.04780 | 36911 ft | 429 kts | 154° |
| 2026-05-07 12:25 | 55.44843 | -6.99610 | 36918 ft | 429 kts | 154° |
| 2026-05-07 12:26 | 55.39639 | -6.94434 | 36923 ft | 429 kts | 154° |
| 2026-05-07 12:26 | 55.34437 | -6.89269 | 36931 ft | 429 kts | 154° |
| 2026-05-07 12:27 | 55.29231 | -6.84126 | 36930 ft | 429 kts | 154° |
| 2026-05-07 12:27 | 55.24052 | -6.79036 | 36934 ft | 429 kts | 154° |
| 2026-05-07 12:28 | 55.18837 | -6.73920 | 36933 ft | 429 kts | 154° |
| 2026-05-07 12:28 | 55.13628 | -6.68815 | 36937 ft | 429 kts | 154° |
| 2026-05-07 12:29 | 55.08412 | -6.63720 | 36923 ft | 429 kts | 154° |
| 2026-05-07 12:29 | 55.03192 | -6.58656 | 36932 ft | 429 kts | 154° |
| 2026-05-07 12:30 | 54.97967 | -6.53596 | 36933 ft | 430 kts | 154° |
| 2026-05-07 12:30 | 54.92741 | -6.48538 | 36942 ft | 430 kts | 154° |
| 2026-05-07 12:31 | 54.87501 | -6.43477 | 36954 ft | 430 kts | 154° |
| 2026-05-07 12:31 | 54.82290 | -6.38475 | 36951 ft | 430 kts | 154° |
| 2026-05-07 12:32 | 54.77053 | -6.33454 | 36955 ft | 431 kts | 153° |
| 2026-05-07 12:32 | 54.71808 | -6.28427 | 36965 ft | 431 kts | 154° |
| 2026-05-07 12:32 | 54.69185 | -6.25926 | 36815 ft | 431 kts | 154° |
| 2026-05-07 12:33 | 54.64100 | -6.20504 | 36289 ft | 430 kts | 147° |
| 2026-05-07 12:33 | 54.61686 | -6.17479 | 36034 ft | 429 kts | 147° |
| 2026-05-07 12:33 | 54.59271 | -6.14461 | 35758 ft | 428 kts | 147° |
| 2026-05-07 12:34 | 54.56866 | -6.11462 | 35433 ft | 426 kts | 146° |
| 2026-05-07 12:34 | 54.54448 | -6.08457 | 34577 ft | 430 kts | 147° |
| 2026-05-07 12:34 | 54.52011 | -6.05434 | 33667 ft | 433 kts | 147° |
| 2026-05-07 12:34 | 54.49557 | -6.02389 | 32711 ft | 434 kts | 147° |
| 2026-05-07 12:35 | 54.47110 | -5.99359 | 31735 ft | 435 kts | 147° |
| 2026-05-07 12:35 | 54.44647 | -5.96315 | 30764 ft | 436 kts | 147° |
| 2026-05-07 12:35 | 54.42191 | -5.93277 | 30065 ft | 430 kts | 147° |
| 2026-05-07 12:35 | 54.39818 | -5.90332 | 29447 ft | 416 kts | 147° |
| 2026-05-07 12:36 | 54.37479 | -5.87443 | 28823 ft | 411 kts | 147° |
| 2026-05-07 12:36 | 54.35165 | -5.84602 | 28210 ft | 407 kts | 147° |
| 2026-05-07 12:36 | 54.32901 | -5.81832 | 27621 ft | 403 kts | 147° |
| 2026-05-07 12:36 | 54.30627 | -5.79053 | 27029 ft | 400 kts | 147° |
| 2026-05-07 12:37 | 54.28372 | -5.76300 | 26459 ft | 397 kts | 147° |
| 2026-05-07 12:37 | 54.26137 | -5.73571 | 25873 ft | 394 kts | 147° |
| 2026-05-07 12:37 | 54.23911 | -5.70860 | 25299 ft | 391 kts | 147° |
| 2026-05-07 12:37 | 54.21702 | -5.68169 | 24731 ft | 390 kts | 147° |
| 2026-05-07 12:38 | 54.19417 | -5.65719 | 24163 ft | 385 kts | 158° |
| 2026-05-07 12:38 | 54.16881 | -5.64423 | 23632 ft | 379 kts | 174° |
| 2026-05-07 12:38 | 54.14261 | -5.64453 | 23059 ft | 375 kts | 190° |
| 2026-05-07 12:38 | 54.11783 | -5.65763 | 22556 ft | 372 kts | 205° |
| 2026-05-07 12:39 | 54.09639 | -5.68191 | 22076 ft | 371 kts | 221° |
| 2026-05-07 12:39 | 54.07845 | -5.71336 | 21595 ft | 369 kts | 225° |
| 2026-05-07 12:39 | 54.06101 | -5.74505 | 21133 ft | 366 kts | 225° |
| 2026-05-07 12:39 | 54.04369 | -5.77651 | 20667 ft | 363 kts | 225° |
| 2026-05-07 12:40 | 54.02668 | -5.80730 | 20193 ft | 360 kts | 225° |
| 2026-05-07 12:40 | 54.00932 | -5.83865 | 19708 ft | 357 kts | 226° |
| 2026-05-07 12:40 | 53.99256 | -5.86892 | 19224 ft | 355 kts | 226° |
| 2026-05-07 12:40 | 53.97571 | -5.89933 | 18732 ft | 353 kts | 226° |
| 2026-05-07 12:41 | 53.95886 | -5.92967 | 18211 ft | 351 kts | 226° |
| 2026-05-07 12:41 | 53.94217 | -5.95972 | 17666 ft | 348 kts | 226° |
| 2026-05-07 12:41 | 53.92560 | -5.98953 | 17147 ft | 345 kts | 226° |
| 2026-05-07 12:41 | 53.90921 | -6.01900 | 16626 ft | 342 kts | 226° |
| 2026-05-07 12:42 | 53.89297 | -6.04810 | 16121 ft | 339 kts | 226° |
| 2026-05-07 12:42 | 53.87682 | -6.07700 | 15611 ft | 336 kts | 225° |
| 2026-05-07 12:42 | 53.86078 | -6.10564 | 15097 ft | 334 kts | 225° |
| 2026-05-07 12:42 | 53.84481 | -6.13408 | 14589 ft | 332 kts | 225° |
| 2026-05-07 12:43 | 53.82894 | -6.16229 | 14073 ft | 330 kts | 225° |
| 2026-05-07 12:43 | 53.81313 | -6.19043 | 13550 ft | 329 kts | 225° |
| 2026-05-07 12:43 | 53.79744 | -6.21835 | 13021 ft | 326 kts | 225° |
| 2026-05-07 12:43 | 53.78184 | -6.24612 | 12518 ft | 324 kts | 225° |
| 2026-05-07 12:44 | 53.76640 | -6.27360 | 12009 ft | 321 kts | 225° |
| 2026-05-07 12:44 | 53.75107 | -6.30078 | 11556 ft | 318 kts | 226° |
| 2026-05-07 12:44 | 53.73610 | -6.32724 | 11180 ft | 311 kts | 226° |
| 2026-05-07 12:44 | 53.72151 | -6.35299 | 10797 ft | 295 kts | 226° |
| 2026-05-07 12:45 | 53.70770 | -6.37738 | 10425 ft | 281 kts | 226° |
| 2026-05-07 12:45 | 53.69447 | -6.40080 | 10061 ft | 272 kts | 226° |
| 2026-05-07 12:45 | 53.68149 | -6.42374 | 9682 ft | 269 kts | 226° |
| 2026-05-07 12:45 | 53.66858 | -6.44651 | 9266 ft | 267 kts | 226° |
| 2026-05-07 12:46 | 53.65571 | -6.46919 | 8886 ft | 269 kts | 226° |
| 2026-05-07 12:46 | 53.64274 | -6.49198 | 8514 ft | 269 kts | 226° |
| 2026-05-07 12:46 | 53.62980 | -6.51468 | 8148 ft | 268 kts | 225° |
| 2026-05-07 12:46 | 53.61709 | -6.53696 | 7784 ft | 264 kts | 225° |
| 2026-05-07 12:47 | 53.60462 | -6.55875 | 7438 ft | 253 kts | 225° |
| 2026-05-07 12:47 | 53.59267 | -6.57959 | 7136 ft | 242 kts | 225° |
| 2026-05-07 12:47 | 53.58121 | -6.59961 | 6841 ft | 233 kts | 225° |
| 2026-05-07 12:47 | 53.57014 | -6.61894 | 6541 ft | 228 kts | 225° |
| 2026-05-07 12:48 | 53.55919 | -6.63805 | 6240 ft | 226 kts | 225° |
| 2026-05-07 12:48 | 53.54782 | -6.65611 | 5914 ft | 223 kts | 214° |
| 2026-05-07 12:48 | 53.53415 | -6.66784 | 5603 ft | 221 kts | 198° |
| 2026-05-07 12:48 | 53.51910 | -6.67207 | 5313 ft | 219 kts | 186° |
| 2026-05-07 12:49 | 53.50405 | -6.67430 | 5024 ft | 216 kts | 186° |
| 2026-05-07 12:49 | 53.48922 | -6.67656 | 4739 ft | 213 kts | 186° |
| 2026-05-07 12:49 | 53.47452 | -6.67885 | 4450 ft | 211 kts | 186° |
| 2026-05-07 12:49 | 53.45995 | -6.68066 | 4169 ft | 210 kts | 179° |
| 2026-05-07 12:50 | 53.44673 | -6.67135 | 3912 ft | 213 kts | 135° |
| 2026-05-07 12:50 | 53.44100 | -6.64896 | 3761 ft | 215 kts | 99° |
| 2026-05-07 12:50 | 53.43995 | -6.62405 | 3605 ft | 213 kts | 97° |
| 2026-05-07 12:50 | 53.43883 | -6.59961 | 3452 ft | 213 kts | 98° |
| 2026-05-07 12:51 | 53.43758 | -6.57498 | 3299 ft | 212 kts | 99° |
| 2026-05-07 12:51 | 53.43630 | -6.55034 | 3168 ft | 211 kts | 98° |
| 2026-05-07 12:51 | 53.43501 | -6.52578 | 3019 ft | 211 kts | 98° |
| 2026-05-07 12:51 | 53.43377 | -6.50188 | 2783 ft | 201 kts | 99° |
| 2026-05-07 12:52 | 53.43257 | -6.47912 | 2560 ft | 193 kts | 100° |
| 2026-05-07 12:52 | 53.43142 | -6.45721 | 2270 ft | 184 kts | 101° |
| 2026-05-07 12:52 | 53.43031 | -6.43637 | 2021 ft | 174 kts | 100° |
| 2026-05-07 12:52 | 53.42926 | -6.41661 | 1792 ft | 169 kts | 99° |
| 2026-05-07 12:53 | 53.42821 | -6.39718 | 1568 ft | 167 kts | 101° |
| 2026-05-07 12:53 | 53.42719 | -6.37809 | 1333 ft | 156 kts | 101° |
| 2026-05-07 12:53 | 53.42625 | -6.36047 | 1127 ft | 147 kts | 103° |
| 2026-05-07 12:53 | 53.42535 | -6.34385 | 930 ft | 140 kts | 100° |
| 2026-05-07 12:54 | 53.42449 | -6.32799 | 738 ft | 134 kts | 98° |
| 2026-05-07 12:54 | 53.42366 | -6.31266 | 556 ft | 130 kts | 98° |
| 2026-05-07 12:54 | 53.42283 | -6.29751 | 350 ft | 130 kts | 97° |
| 2026-05-07 12:54 | 53.42203 | -6.28246 | 216 ft | 124 kts | 97° |
| 2026-05-07 12:55 | 53.42133 | -6.27051 | 215 ft | 78 kts | 95° |
| 2026-05-07 12:55 | 53.42099 | -6.26379 | 212 ft | 48 kts | 96° |
| 2026-05-07 12:55 | 53.42072 | -6.25894 | 211 ft | 36 kts | 95° |
| 2026-05-07 12:55 | 53.42057 | -6.25587 | 212 ft | 21 kts | 91° |
| 2026-05-07 12:56 | 53.42094 | -6.25410 | 211 ft | 16 kts | 59° |
| 2026-05-07 12:56 | 53.42136 | -6.25283 | 211 ft | 10 kts | 61° |
| 2026-05-07 12:56 | 53.42177 | -6.25159 | 211 ft | 14 kts | 61° |
| 2026-05-07 12:56 | 53.42226 | -6.25010 | 215 ft | 13 kts | 58° |
| 2026-05-07 12:57 | 53.42277 | -6.24914 | 211 ft | 7 kts | 45° |
| 2026-05-07 12:57 | 53.42311 | -6.24857 | 211 ft | 8 kts | 46° |
| 2026-05-07 12:57 | 53.42357 | -6.24775 | 211 ft | 11 kts | 46° |
| 2026-05-07 12:57 | 53.42413 | -6.24662 | 211 ft | 14 kts | 60° |
| 2026-05-07 12:58 | 53.42455 | -6.24526 | 213 ft | 13 kts | 62° |
| 2026-05-07 12:58 | 53.42510 | -6.24428 | 211 ft | 8 kts | 28° |
| 2026-05-07 12:58 | 53.42562 | -6.24450 | 213 ft | 7 kts | 319° |
| 2026-05-07 12:58 | 53.42583 | -6.24496 | 211 ft | 1 kts | 307° |
| 2026-05-07 12:59 | 53.42587 | -6.24504 | 211 ft | 0 kts | 306° |